Time;durP1;ratioP1;P1;durP2;ratioP2;P2;SDS_P1;SDS_P2;PMS_P1;PMS_P2;Temp;Humidity;BMP_temperature;BMP_pressure;BME280_temperature;BME280_humidity;BME280_pressure;Samples;Min_cycle;Max_cycle;Signal;HPM_P1;HPM_P2
2023/03/26 00:00:53;;;;;;;2.58;1.55;;;;;;;9.27;51.43;98473.06;5126212;28;20074;-70
2023/03/26 00:03:21;;;;;;;2.53;1.58;;;;;;;9.27;51.64;98494.22;5125341;28;20059;-70
2023/03/26 00:05:48;;;;;;;4.75;1.58;;;;;;;9.25;51.44;98485.53;5126102;28;20049;-71
2023/03/26 00:08:16;;;;;;;2.67;1.30;;;;;;;9.27;51.50;98502.16;5126651;28;20046;-70
2023/03/26 00:10:44;;;;;;;3.28;1.50;;;;;;;9.26;51.49;98474.00;5126072;28;20106;-70
2023/03/26 00:13:10;;;;;;;3.28;1.40;;;;;;;9.27;51.50;98494.22;5125132;28;20059;-70
2023/03/26 00:15:37;;;;;;;3.08;1.50;;;;;;;9.28;51.35;98487.13;5126424;28;20047;-70
2023/03/26 00:18:04;;;;;;;2.42;1.55;;;;;;;9.28;51.54;98487.13;5126238;28;20036;-70
2023/03/26 00:20:33;;;;;;;2.42;1.50;;;;;;;9.29;51.53;98483.53;5126346;28;20059;-70
2023/03/26 00:23:01;;;;;;;2.33;1.40;;;;;;;9.31;51.28;98482.50;5124982;28;20122;-69
2023/03/26 00:25:28;;;;;;;3.17;1.27;;;;;;;9.33;51.17;98471.81;5126324;28;20066;-70
2023/03/26 00:27:56;;;;;;;3.28;1.30;;;;;;;9.33;51.20;98485.03;5125772;28;20183;-70
2023/03/26 00:30:22;;;;;;;3.80;1.40;;;;;;;9.35;51.38;98492.88;5125851;28;20054;-70
2023/03/26 00:32:50;;;;;;;2.45;1.52;;;;;;;9.34;51.40;98485.88;5126497;28;20110;-70
2023/03/26 00:35:17;;;;;;;1.90;1.30;;;;;;;9.35;51.29;98477.00;5125753;28;20243;-70
2023/03/26 00:37:45;;;;;;;2.15;1.48;;;;;;;9.37;51.19;98480.41;5125978;28;20176;-71
2023/03/26 00:40:12;;;;;;;1.95;1.30;;;;;;;9.35;51.16;98462.00;5126352;28;20114;-71
2023/03/26 00:42:41;;;;;;;4.13;1.20;;;;;;;9.40;51.15;98486.38;5125916;28;20318;-71
2023/03/26 00:45:08;;;;;;;2.15;1.30;;;;;;;9.40;51.10;98473.16;5126237;28;20062;-70
2023/03/26 00:47:36;;;;;;;3.85;1.50;;;;;;;9.42;51.20;98481.84;5128851;28;20040;-70
2023/03/26 00:50:03;;;;;;;2.35;1.45;;;;;;;9.41;51.43;98489.88;5128875;28;20062;-70
2023/03/26 00:52:30;;;;;;;2.42;1.40;;;;;;;9.43;51.10;98491.47;5129999;28;20039;-70
2023/03/26 00:54:58;;;;;;;3.78;2.55;;;;;;;9.42;51.05;98473.06;5112077;28;20072;-70
2023/03/26 00:57:29;;;;;;;2.30;1.40;;;;;;;9.43;51.22;98472.97;5128820;28;20031;-70
2023/03/26 00:59:56;;;;;;;2.15;1.30;;;;;;;9.45;51.16;98478.16;5129285;28;20062;-70
2023/03/26 01:02:24;;;;;;;2.17;1.30;;;;;;;9.45;50.98;98472.88;5129566;28;20058;-70
2023/03/26 01:04:55;;;;;;;2.25;1.40;;;;;;;9.46;51.33;98493.06;5128656;28;20035;-70
2023/03/26 01:07:29;;;;;;;1.65;1.10;;;;;;;8.93;50.93;98386.25;5129969;28;20047;-70
2023/03/26 01:10:00;;;;;;;2.45;1.40;;;;;;;9.35;51.09;98477.00;5129527;27;20392;-70
2023/03/26 01:12:30;;;;;;;2.10;1.27;;;;;;;8.58;51.04;98355.00;5128465;28;20039;-69
2023/03/26 01:15:00;;;;;;;4.03;1.95;;;;;;;9.46;51.30;98482.50;5129362;28;20199;-69
2023/03/26 01:17:32;;;;;;;1.88;1.30;;;;;;;9.45;51.16;98475.50;5128355;28;20089;-70
2023/03/26 01:20:12;;;;;;;2.75;1.42;;;;;;;9.46;51.26;98467.47;5129540;28;20047;-69
2023/03/26 01:22:42;;;;;;;2.53;1.45;;;;;;;9.46;51.07;98463.97;5129676;28;20039;-70
2023/03/26 01:25:11;;;;;;;2.25;1.35;;;;;;;9.48;51.16;98459.44;5129405;28;20212;-70
2023/03/26 01:27:42;;;;;;;2.70;1.50;;;;;;;9.50;51.01;98447.81;5128719;28;20040;-69
2023/03/26 01:30:17;;;;;;;2.85;1.60;;;;;;;9.22;51.24;98411.69;5129267;28;20039;-70
2023/03/26 01:32:56;;;;;;;2.15;1.38;;;;;;;9.51;51.22;98449.50;5128385;28;20070;-69
2023/03/26 01:35:33;;;;;;;3.65;1.48;;;;;;;9.22;51.34;98393.19;5128842;28;20051;-69
2023/03/26 01:38:13;;;;;;;1.83;1.30;;;;;;;9.51;51.37;98473.31;5127985;28;20195;-69
2023/03/26 01:40:48;;;;;;;2.78;1.50;;;;;;;9.15;51.35;98394.50;5128276;28;20052;-69
2023/03/26 01:43:25;;;;;;;3.13;1.60;;;;;;;9.49;51.48;98456.69;5127821;28;20059;-69
2023/03/26 01:45:52;;;;;;;2.25;1.30;;;;;;;9.28;51.13;98421.88;5128983;27;20108;-71
2023/03/26 01:48:19;;;;;;;1.58;1.10;;;;;;;9.48;51.06;98441.78;5127771;28;20043;-70
2023/03/26 01:50:47;;;;;;;3.75;1.30;;;;;;;9.49;51.22;98447.91;5127720;28;20399;-69
2023/03/26 01:53:14;;;;;;;5.13;1.80;;;;;;;9.53;51.11;98447.63;5128853;27;20040;-69
2023/03/26 01:55:54;;;;;;;2.42;1.48;;;;;;;8.97;51.55;98363.97;5128853;28;20206;-69
2023/03/26 01:58:32;;;;;;;2.28;1.50;;;;;;;9.53;51.69;98463.47;5126372;28;20047;-70
2023/03/26 02:01:12;;;;;;;4.25;1.50;;;;;;;9.33;51.66;98440.09;5127628;28;20172;-70
2023/03/26 02:03:45;;;;;;;2.33;1.30;;;;;;;9.54;51.37;98467.81;5128298;28;20044;-71
2023/03/26 02:06:20;;;;;;;2.13;1.40;;;;;;;9.54;51.69;98477.56;5127481;28;20115;-70
2023/03/26 02:08:53;;;;;;;3.70;1.60;;;;;;;9.54;51.55;98462.53;5128232;27;20036;-70
2023/03/26 02:11:21;;;;;;;2.55;1.67;;;;;;;9.56;51.43;98451.84;5128559;28;20055;-70
2023/03/26 02:13:48;;;;;;;3.63;1.50;;;;;;;9.54;51.37;98454.59;5127318;28;20036;-69
2023/03/26 02:16:17;;;;;;;3.63;1.80;;;;;;;9.52;51.55;98450.34;5128398;28;20092;-70
2023/03/26 02:18:44;;;;;;;3.78;1.70;;;;;;;9.51;51.57;98454.81;5128671;28;20049;-70
2023/03/26 02:21:14;;;;;;;3.58;1.50;;;;;;;9.50;51.61;98447.81;5128312;28;20051;-70
2023/03/26 02:23:45;;;;;;;2.30;1.42;;;;;;;9.54;51.55;98435.22;5127903;28;20066;-70
2023/03/26 02:26:14;;;;;;;3.20;1.50;;;;;;;9.54;51.51;98440.53;5127086;28;20039;-70
2023/03/26 02:28:43;;;;;;;2.92;1.30;;;;;;;9.52;51.68;98445.06;5127077;28;20119;-70
2023/03/26 02:31:12;;;;;;;2.45;1.45;;;;;;;9.18;51.83;98381.09;5127080;28;20046;-71
2023/03/26 02:33:39;;;;;;;3.10;1.60;;;;;;;9.50;51.69;98433.75;5126736;28;20058;-71
2023/03/26 02:36:07;;;;;;;2.25;1.40;;;;;;;9.04;51.61;98353.84;5128309;28;20051;-71
2023/03/26 02:38:35;;;;;;;2.70;1.58;;;;;;;9.37;51.57;98416.94;5127669;28;20180;-70
2023/03/26 02:41:02;;;;;;;3.60;1.40;;;;;;;9.52;51.88;98434.47;5126801;28;20043;-70
2023/03/26 02:43:29;;;;;;;2.70;1.40;;;;;;;9.53;51.54;98433.53;5127811;28;20163;-70
2023/03/26 02:45:58;;;;;;;7.65;3.80;;;;;;;9.32;52.19;98386.34;5128131;27;20036;-70
2023/03/26 02:48:25;;;;;;;4.43;2.17;;;;;;;9.55;52.09;98415.78;5127808;28;20107;-70
2023/03/26 02:50:53;;;;;;;3.22;1.60;;;;;;;9.55;51.88;98427.19;5126918;28;20040;-70
2023/03/26 02:53:22;;;;;;;2.42;1.38;;;;;;;9.56;51.96;98418.31;5127949;28;20077;-71
2023/03/26 02:55:49;;;;;;;3.40;1.50;;;;;;;9.54;51.91;98419.38;5127288;28;20077;-70
2023/03/26 02:58:16;;;;;;;3.38;1.55;;;;;;;9.26;51.95;98383.25;5127041;28;20035;-70
2023/03/26 03:00:43;;;;;;;2.40;1.40;;;;;;;9.55;52.07;98423.69;5127556;28;20234;-70
2023/03/26 03:03:11;;;;;;;4.03;1.90;;;;;;;9.54;52.09;98414.06;5126262;28;20065;-71
2023/03/26 03:05:41;;;;;;;4.78;2.30;;;;;;;9.55;51.91;98413.97;5127166;28;20042;-71
2023/03/26 03:08:09;;;;;;;10.10;2.35;;;;;;;9.43;51.95;98400.69;5127364;28;20035;-71
2023/03/26 03:10:36;;;;;;;2.83;1.40;;;;;;;9.52;51.95;98419.47;5125674;28;20119;-71
2023/03/26 03:13:04;;;;;;;2.22;1.40;;;;;;;9.53;51.89;98415.88;5126210;28;20339;-71
2023/03/26 03:15:31;;;;;;;3.17;2.00;;;;;;;9.52;51.89;98415.97;5126547;28;20067;-70
2023/03/26 03:17:58;;;;;;;3.95;1.90;;;;;;;9.53;51.99;98401.78;5127429;28;20070;-71
2023/03/26 03:20:26;;;;;;;4.25;1.60;;;;;;;9.51;52.26;98427.50;5127124;28;20169;-71
2023/03/26 03:22:53;;;;;;;4.22;1.42;;;;;;;9.49;52.10;98413.53;5126926;28;20051;-71
2023/03/26 03:25:21;;;;;;;2.20;1.45;;;;;;;9.50;52.22;98420.50;5126696;28;20046;-71
2023/03/26 03:27:47;;;;;;;3.22;1.33;;;;;;;9.48;52.31;98414.47;5125914;28;20073;-70
2023/03/26 03:30:14;;;;;;;2.03;1.20;;;;;;;9.48;52.20;98414.47;5125860;28;20040;-70
2023/03/26 03:32:41;;;;;;;3.75;1.70;;;;;;;9.47;52.29;98403.06;5126051;28;20130;-70
2023/03/26 03:35:09;;;;;;;2.55;1.50;;;;;;;9.45;52.50;98414.69;5125554;28;20055;-70
2023/03/26 03:37:37;;;;;;;3.85;1.63;;;;;;;9.43;52.56;98413.94;5125636;28;20119;-70
2023/03/26 03:40:06;;;;;;;2.30;1.30;;;;;;;9.43;52.64;98412.13;5125663;28;20039;-70
2023/03/26 03:42:33;;;;;;;3.03;1.50;;;;;;;9.41;52.88;98392.88;5126461;28;20089;-70
2023/03/26 03:45:00;;;;;;;2.88;1.33;;;;;;;9.43;52.51;98403.34;5126701;28;20275;-70
2023/03/26 03:47:27;;;;;;;3.40;1.58;;;;;;;9.23;52.54;98370.25;5125826;28;20349;-70
2023/03/26 03:49:55;;;;;;;2.83;1.30;;;;;;;9.42;52.78;98391.91;5126319;28;20047;-70
2023/03/26 03:52:22;;;;;;;2.78;1.48;;;;;;;9.43;52.56;98403.34;5126111;28;20047;-71
2023/03/26 03:54:50;;;;;;;4.78;1.70;;;;;;;9.44;52.55;98408.53;5126171;28;20044;-70
2023/03/26 03:57:17;;;;;;;2.88;1.50;;;;;;;9.27;52.53;98372.59;5126210;28;20088;-70
2023/03/26 03:59:46;;;;;;;3.63;2.28;;;;;;;9.46;52.59;98405.78;5126392;28;20051;-70
2023/03/26 04:02:12;;;;;;;3.10;1.60;;;;;;;9.46;52.46;98421.66;5126586;28;20051;-70
2023/03/26 04:04:39;;;;;;;2.60;1.60;;;;;;;9.48;52.52;98427.69;5126649;28;20039;-70
2023/03/26 04:07:06;;;;;;;4.22;1.40;;;;;;;9.46;52.22;98401.34;5126389;28;20296;-70
2023/03/26 04:09:33;;;;;;;2.90;1.77;;;;;;;9.45;52.41;98410.22;5126153;28;20058;-70
2023/03/26 04:12:01;;;;;;;2.85;1.88;;;;;;;9.46;52.43;98413.72;5126055;28;20043;-70
2023/03/26 04:14:28;;;;;;;2.75;1.40;;;;;;;9.30;52.39;98382.97;5125202;28;20046;-70
2023/03/26 04:16:54;;;;;;;3.70;1.92;;;;;;;9.46;52.41;98403.16;5126532;28;20057;-71
2023/03/26 04:19:21;;;;;;;2.70;1.42;;;;;;;9.45;52.40;98415.53;5125768;28;20055;-70
2023/03/26 04:21:48;;;;;;;3.63;1.85;;;;;;;9.43;52.41;98406.84;5127340;28;20071;-70
2023/03/26 04:24:15;;;;;;;2.58;1.40;;;;;;;9.41;52.41;98406.09;5129730;28;20104;-70
2023/03/26 04:26:42;;;;;;;2.60;1.50;;;;;;;9.42;52.39;98406.94;5129379;28;20042;-70
2023/03/26 04:29:15;;;;;;;3.78;1.90;;;;;;;9.26;52.44;98383.25;5130115;28;20040;-70
2023/03/26 04:31:42;;;;;;;2.70;1.60;;;;;;;9.44;52.27;98411.19;5130576;28;20319;-70
2023/03/26 04:34:17;;;;;;;3.78;1.88;;;;;;;9.44;52.45;98413.81;5129844;28;20111;-71
2023/03/26 04:36:45;;;;;;;2.85;1.60;;;;;;;9.43;52.34;98421.88;5130057;28;20044;-70
2023/03/26 04:39:13;;;;;;;2.78;1.55;;;;;;;8.90;52.25;98328.31;5130430;28;20062;-70
2023/03/26 04:41:39;;;;;;;4.05;1.50;;;;;;;9.42;52.68;98407.78;5129936;28;20096;-69
2023/03/26 04:44:06;;;;;;;4.63;1.90;;;;;;;9.42;52.28;98412.22;5130342;28;20050;-70
2023/03/26 04:46:34;;;;;;;3.00;1.60;;;;;;;9.41;52.33;98403.44;5129749;28;20276;-70
2023/03/26 04:49:01;;;;;;;3.42;1.83;;;;;;;9.42;52.35;98410.44;5128890;28;20042;-70
2023/03/26 04:51:37;;;;;;;2.63;1.60;;;;;;;9.41;52.45;98419.31;5129719;28;20059;-70
2023/03/26 04:54:05;;;;;;;2.65;1.45;;;;;;;9.41;52.27;98411.38;5130224;28;20035;-70
2023/03/26 04:56:39;;;;;;;1.92;1.42;;;;;;;9.34;52.42;98412.69;5128744;28;20131;-70
2023/03/26 04:59:08;;;;;;;2.72;1.60;;;;;;;9.39;52.40;98420.34;5129595;28;20070;-70
2023/03/26 05:01:36;;;;;;;2.47;1.50;;;;;;;9.38;52.29;98419.47;5129449;28;20061;-70
2023/03/26 05:04:03;;;;;;;2.95;1.63;;;;;;;9.39;52.27;98415.88;5128536;28;20031;-70
2023/03/26 05:06:33;;;;;;;3.47;2.03;;;;;;;9.41;52.16;98427.25;5128849;28;20039;-70
2023/03/26 05:09:00;;;;;;;3.05;1.50;;;;;;;9.40;52.20;98428.19;5129671;28;20084;-70
2023/03/26 05:11:27;;;;;;;2.50;1.55;;;;;;;9.39;52.25;98425.63;5129940;27;20061;-70
2023/03/26 05:13:55;;;;;;;5.70;2.03;;;;;;;9.41;52.20;98440.47;5129404;28;20035;-70
2023/03/26 05:16:22;;;;;;;2.92;1.60;;;;;;;9.26;52.13;98415.00;5128370;28;20104;-70
2023/03/26 05:18:51;;;;;;;2.22;1.30;;;;;;;9.42;52.34;98462.47;5129230;28;20053;-70
2023/03/26 05:21:18;;;;;;;3.95;1.42;;;;;;;9.25;52.27;98418.59;5129187;28;20036;-70
2023/03/26 05:23:45;;;;;;;3.25;1.52;;;;;;;9.41;52.18;98451.06;5129324;28;20050;-70
2023/03/26 05:26:12;;;;;;;4.05;1.70;;;;;;;9.08;52.29;98387.06;5129046;28;20043;-70
2023/03/26 05:28:38;;;;;;;2.92;1.83;;;;;;;9.42;52.21;98449.25;5129073;28;20303;-70
2023/03/26 05:31:07;;;;;;;2.85;1.70;;;;;;;9.42;52.27;98455.41;5128954;28;20196;-70
2023/03/26 05:33:34;;;;;;;2.95;1.50;;;;;;;9.14;52.14;98395.44;5128631;28;20031;-70
2023/03/26 05:36:04;;;;;;;2.97;1.50;;;;;;;9.44;52.26;98447.38;5128862;27;20339;-70
2023/03/26 05:38:31;;;;;;;3.75;2.00;;;;;;;9.45;52.19;98452.56;5129078;28;20314;-70
2023/03/26 05:40:59;;;;;;;3.42;2.20;;;;;;;9.30;52.16;98432.34;5127912;28;20039;-70
2023/03/26 05:43:26;;;;;;;2.47;1.60;;;;;;;9.47;51.84;98455.09;5128958;27;20050;-70
2023/03/26 05:45:53;;;;;;;3.33;1.92;;;;;;;9.16;52.18;98404.13;5129193;28;20039;-70
2023/03/26 05:48:20;;;;;;;4.50;1.70;;;;;;;9.50;52.25;98458.41;5128850;28;20062;-70
2023/03/26 05:50:48;;;;;;;4.40;1.52;;;;;;;9.32;52.17;98426.03;5129125;28;20066;-70
2023/03/26 05:53:17;;;;;;;3.10;1.60;;;;;;;9.54;51.98;98472.25;5128523;28;20043;-70
2023/03/26 05:55:45;;;;;;;4.35;2.25;;;;;;;9.23;52.35;98426.63;5128725;28;20110;-70
2023/03/26 05:58:13;;;;;;;2.10;1.42;;;;;;;9.57;52.01;98469.41;5127582;28;20036;-71
2023/03/26 06:00:40;;;;;;;3.13;1.83;;;;;;;9.44;52.02;98434.13;5128385;27;20202;-70
2023/03/26 06:03:11;;;;;;;2.72;1.60;;;;;;;9.59;52.01;98459.59;5128777;28;20036;-70
2023/03/26 06:05:39;;;;;;;2.42;1.60;;;;;;;9.59;52.08;98475.47;5127342;28;20035;-70
2023/03/26 06:08:07;;;;;;;3.42;1.60;;;;;;;9.60;52.27;98477.16;5127970;28;20071;-71
2023/03/26 06:10:37;;;;;;;3.85;1.77;;;;;;;9.58;52.36;98479.91;5127412;28;20032;-70
2023/03/26 06:13:04;;;;;;;3.40;1.70;;;;;;;9.60;52.28;98485.09;5128378;28;20054;-70
2023/03/26 06:15:31;;;;;;;2.75;1.52;;;;;;;9.62;52.26;98493.78;5128191;28;20043;-71
2023/03/26 06:17:58;;;;;;;3.17;1.70;;;;;;;9.65;52.43;98503.31;5128626;28;20212;-71
2023/03/26 06:20:25;;;;;;;4.22;2.00;;;;;;;9.65;52.22;98506.81;5128050;28;20124;-70
2023/03/26 06:22:51;;;;;;;2.80;1.73;;;;;;;9.67;52.21;98504.06;5128074;28;20295;-70
2023/03/26 06:25:18;;;;;;;4.28;1.90;;;;;;;9.63;52.38;98500.78;5127055;28;20044;-70
2023/03/26 06:27:46;;;;;;;3.80;1.70;;;;;;;9.68;52.32;98514.56;5127158;28;20114;-70
2023/03/26 06:30:14;;;;;;;6.22;2.20;;;;;;;9.69;52.22;98512.75;5128477;28;20328;-70
2023/03/26 06:32:40;;;;;;;3.55;1.70;;;;;;;9.73;52.23;98514.25;5128209;28;20035;-70
2023/03/26 06:35:08;;;;;;;4.40;1.83;;;;;;;9.72;52.23;98526.63;5127546;28;20051;-70
2023/03/26 06:37:35;;;;;;;3.60;1.80;;;;;;;9.74;52.39;98523.88;5127720;27;20058;-70
2023/03/26 06:40:02;;;;;;;3.85;2.33;;;;;;;9.75;52.01;98525.59;5127702;28;20070;-70
2023/03/26 06:42:28;;;;;;;3.42;2.08;;;;;;;9.61;52.20;98492.09;5126642;28;20212;-70
2023/03/26 06:44:57;;;;;;;3.88;1.80;;;;;;;9.79;52.28;98530.56;5127048;28;20280;-70
2023/03/26 06:47:23;;;;;;;3.22;1.85;;;;;;;9.82;52.40;98532.19;5127449;28;20043;-70
2023/03/26 06:49:50;;;;;;;5.78;2.08;;;;;;;9.69;52.28;98510.09;5127402;28;20047;-70
2023/03/26 06:52:17;;;;;;;3.90;1.70;;;;;;;9.88;52.23;98535.28;5127428;28;20035;-70
2023/03/26 06:54:44;;;;;;;3.42;1.77;;;;;;;9.93;52.35;98530.53;5126475;28;20042;-70
2023/03/26 06:57:11;;;;;;;3.78;1.90;;;;;;;10.00;52.15;98538.06;5126349;28;20042;-70
2023/03/26 06:59:38;;;;;;;2.97;1.73;;;;;;;10.07;52.06;98529.63;5127495;28;20107;-70
2023/03/26 07:02:07;;;;;;;3.38;1.60;;;;;;;10.23;52.25;98532.94;5127747;28;20044;-70
2023/03/26 07:04:34;;;;;;;3.20;1.90;;;;;;;10.56;51.38;98516.56;5126276;28;20035;-70
2023/03/26 07:07:01;;;;;;;3.47;2.03;;;;;;;11.09;50.37;98513.84;5126217;28;20047;-71
2023/03/26 07:09:29;;;;;;;3.42;1.70;;;;;;;11.62;49.60;98512.66;5127180;28;20040;-71
2023/03/26 07:11:56;;;;;;;3.72;2.03;;;;;;;12.03;48.81;98511.44;5126827;28;20319;-71
2023/03/26 07:14:23;;;;;;;3.95;1.70;;;;;;;12.40;48.11;98496.28;5126941;28;20040;-71
2023/03/26 07:16:51;;;;;;;4.07;2.00;;;;;;;12.79;47.64;98501.19;5127502;28;20089;-71
2023/03/26 07:19:19;;;;;;;2.38;1.50;;;;;;;13.15;46.73;98500.13;5127198;28;20049;-71
2023/03/26 07:21:46;;;;;;;4.22;1.98;;;;;;;13.43;46.38;98490.81;5125692;28;20055;-70
2023/03/26 07:24:15;;;;;;;5.63;1.80;;;;;;;13.62;45.88;98492.81;5125833;28;20039;-71
2023/03/26 07:26:51;;;;;;;5.18;1.90;;;;;;;13.88;44.73;98476.53;5125770;28;20043;-71
2023/03/26 07:29:24;;;;;;;4.07;1.73;;;;;;;14.11;44.95;98478.97;5126868;28;20107;-71
2023/03/26 07:32:00;;;;;;;4.05;1.80;;;;;;;14.33;44.61;98480.69;5126721;28;20039;-71
2023/03/26 07:34:45;;;;;;;2.75;1.60;;;;;;;14.56;43.03;98470.75;5126316;28;20039;-72
2023/03/26 07:37:28;;;;;;;2.83;1.42;;;;;;;14.73;43.19;98470.19;5126875;28;20046;-71
2023/03/26 07:39:59;;;;;;;3.70;1.73;;;;;;;14.83;44.08;98474.75;5126068;28;20261;-71
2023/03/26 07:42:39;;;;;;;3.60;1.92;;;;;;;14.95;42.84;98463.00;5125694;28;20039;-71
2023/03/26 07:45:18;;;;;;;2.95;1.63;;;;;;;14.90;42.51;98455.41;5126232;28;20291;-72
2023/03/26 07:47:48;;;;;;;3.35;1.88;;;;;;;14.91;43.62;98441.09;5125398;28;20199;-71
2023/03/26 07:50:18;;;;;;;6.32;2.20;;;;;;;14.86;43.31;98424.63;5126629;28;20044;-71
2023/03/26 07:52:45;;;;;;;9.18;2.35;;;;;;;15.09;43.62;98427.97;5126906;28;20048;-71
2023/03/26 07:55:14;;;;;;;4.22;1.90;;;;;;;15.19;43.43;98441.34;5126207;28;20050;-71
2023/03/26 07:57:53;;;;;;;3.38;1.50;;;;;;;15.46;41.36;98451.38;5126256;28;20036;-72
2023/03/26 08:00:24;;;;;;;3.38;1.90;;;;;;;15.54;42.65;98457.72;5125740;28;20039;-71
2023/03/26 08:03:25;;;;;;;5.03;1.88;;;;;;;15.47;40.52;98442.38;5126250;28;20109;-71
2023/03/26 08:06:02;;;;;;;2.72;1.65;;;;;;;15.42;41.55;98434.78;5126468;28;20046;-71
2023/03/26 08:08:35;;;;;;;3.53;1.80;;;;;;;15.63;41.65;98442.69;5126094;28;20114;-71
2023/03/26 08:11:14;;;;;;;3.97;1.80;;;;;;;15.81;41.11;98434.88;5126283;28;20075;-72
2023/03/26 08:13:55;;;;;;;2.83;1.50;;;;;;;15.88;40.40;98444.03;5125161;28;20299;-71
2023/03/26 08:16:27;;;;;;;2.92;1.42;;;;;;;15.92;41.95;98434.75;5125972;28;20051;-72
2023/03/26 08:19:02;;;;;;;3.80;1.80;;;;;;;16.11;41.66;98420.53;5124972;28;20039;-72
2023/03/26 08:21:38;;;;;;;3.60;1.73;;;;;;;16.25;39.85;98423.59;5125463;28;20084;-71
2023/03/26 08:24:13;;;;;;;4.28;1.90;;;;;;;16.16;41.29;98418.28;5125261;28;20100;-71
2023/03/26 08:26:47;;;;;;;4.78;1.73;;;;;;;15.84;41.29;98418.56;5125008;28;20042;-71
2023/03/26 08:29:23;;;;;;;5.13;1.50;;;;;;;15.79;41.01;98418.16;5124942;28;20203;-72
2023/03/26 08:31:50;;;;;;;3.35;1.63;;;;;;;15.88;41.72;98441.34;5125865;28;20035;-72
2023/03/26 08:34:17;;;;;;;5.47;1.88;;;;;;;15.79;42.12;98426.16;5125816;28;20338;-72
2023/03/26 08:36:45;;;;;;;3.08;1.60;;;;;;;15.83;42.14;98424.91;5125039;28;20191;-71
2023/03/26 08:39:13;;;;;;;3.97;1.83;;;;;;;15.78;41.65;98395.09;5126289;28;20066;-72
2023/03/26 08:42:04;;;;;;;6.35;2.10;;;;;;;15.91;39.41;98380.47;5126355;28;20341;-71
2023/03/26 08:45:11;;;;;;;4.45;1.70;;;;;;;16.00;38.88;98392.13;5125837;28;20237;-71
2023/03/26 08:48:06;;;;;;;4.03;2.20;;;;;;;16.08;39.32;98408.28;5091649;28;20122;-72
2023/03/26 08:51:17;;;;;;;3.53;1.67;;;;;;;15.80;38.74;98361.91;5124636;28;20131;-71
2023/03/26 08:54:15;;;;;;;3.17;1.70;;;;;;;15.58;39.47;98346.13;5125945;28;20042;-72
2023/03/26 08:56:52;;;;;;;3.80;1.85;;;;;;;15.81;40.07;98384.97;5117265;28;20047;-71
2023/03/26 09:00:12;;;;;;;4.00;2.20;;;;;;;15.79;39.00;98381.59;5125584;28;20035;-71
2023/03/26 09:03:13;;;;;;;3.20;2.22;;;;;;;15.80;38.84;98387.78;5107893;28;20047;-71
2023/03/26 09:06:02;;;;;;;6.75;2.67;;;;;;;15.88;39.05;98371.88;5125663;28;20062;-70
2023/03/26 09:09:01;;;;;;;5.13;2.60;;;;;;;15.98;38.73;98365.53;5127900;28;20198;-71
2023/03/26 09:11:57;;;;;;;4.28;1.90;;;;;;;16.15;38.26;98363.97;5129658;28;20040;-71
2023/03/26 09:15:02;;;;;;;3.90;1.70;;;;;;;16.23;37.82;98352.56;5103806;28;20300;-71
2023/03/26 09:18:01;;;;;;;3.13;1.70;;;;;;;15.86;37.55;98297.22;5128841;28;20318;-72
2023/03/26 09:20:59;;;;;;;5.18;1.85;;;;;;;16.11;37.65;98337.66;5128407;28;20307;-71
2023/03/26 09:24:03;;;;;;;3.58;1.65;;;;;;;16.13;37.87;98333.88;5129162;28;20204;-72
2023/03/26 09:26:45;;;;;;;5.68;2.05;;;;;;;16.14;38.47;98329.38;5129244;28;20070;-71
2023/03/26 09:29:59;;;;;;;3.88;1.55;;;;;;;16.17;37.47;98327.25;5129176;28;20055;-72
2023/03/26 09:32:59;;;;;;;4.30;1.60;;;;;;;16.14;37.19;98294.63;5129517;28;20043;-72
2023/03/26 09:35:42;;;;;;;3.95;2.22;;;;;;;16.15;37.63;98286.44;5110958;28;20055;-72
2023/03/26 09:38:17;;;;;;;3.65;1.60;;;;;;;14.43;38.69;97968.97;5128940;28;20107;-71
2023/03/26 09:40:52;;;;;;;4.72;2.10;;;;;;;16.36;38.41;98259.50;5129018;28;20063;-72
2023/03/26 09:43:53;;;;;;;4.82;1.60;;;;;;;13.87;35.34;97838.34;5128871;28;20241;-71
2023/03/26 09:46:31;;;;;;;3.08;1.50;;;;;;;16.44;36.79;98274.81;5128661;28;20289;-72
2023/03/26 09:49:21;;;;;;;2.85;1.58;;;;;;;15.71;35.40;98144.56;5128974;28;20051;-75
2023/03/26 09:52:16;;;;;;;3.42;1.70;;;;;;;16.70;34.98;98296.38;5127045;28;20046;-72
2023/03/26 09:55:02;;;;;;;4.50;1.27;;;;;;;16.70;36.31;98275.84;5127656;28;20031;-72
2023/03/26 09:57:57;;;;;;;5.30;2.22;;;;;;;16.78;35.37;98262.56;5128454;28;20047;-72
2023/03/26 10:00:35;;;;;;;6.35;1.80;;;;;;;16.68;36.09;98288.50;5123558;28;20043;-72
2023/03/26 10:03:30;;;;;;;4.22;1.40;;;;;;;16.82;34.63;98247.88;5128867;27;20279;-72
2023/03/26 10:06:18;;;;;;;3.58;1.73;;;;;;;16.78;34.55;98248.31;5121389;28;20044;-72
2023/03/26 10:09:14;;;;;;;5.97;2.00;;;;;;;16.78;35.11;98240.31;5127412;28;20125;-72
2023/03/26 10:12:05;;;;;;;3.72;1.70;;;;;;;16.72;34.76;98232.88;5123304;28;20047;-72
2023/03/26 10:14:38;;;;;;;3.55;1.45;;;;;;;16.68;36.25;98227.81;5126440;28;20065;-72
2023/03/26 10:17:20;;;;;;;5.68;1.70;;;;;;;16.51;35.01;98203.69;5127998;28;20043;-72
2023/03/26 10:20:03;;;;;;;3.22;1.65;;;;;;;16.61;34.76;98212.50;5126642;28;20051;-72
2023/03/26 10:22:46;;;;;;;3.38;1.55;;;;;;;15.92;35.56;98096.25;5127361;28;20067;-71
2023/03/26 10:25:35;;;;;;;2.40;1.52;;;;;;;16.54;34.82;98198.03;5128116;28;20042;-71
2023/03/26 10:28:14;;;;;;;4.32;1.55;;;;;;;10.43;35.76;97194.09;5127745;28;20043;-72
2023/03/26 10:31:07;;;;;;;4.68;1.52;;;;;;;16.44;34.55;98184.72;5110064;28;20050;-72
2023/03/26 10:33:42;;;;;;;5.28;1.83;;;;;;;16.40;36.37;98178.00;5124890;28;20047;-71
2023/03/26 10:36:20;;;;;;;;;;;;;;;16.32;34.04;98168.03;5128250;28;20040;-71
2023/03/26 10:39:02;;;;;;;2.53;1.30;;;;;;;16.01;35.48;98103.38;5127608;28;19919;-72
2023/03/26 10:41:39;;;;;;;3.80;2.03;;;;;;;16.21;35.35;98135.34;5127877;28;20044;-71
2023/03/26 10:44:35;;;;;;;3.80;1.65;;;;;;;16.35;33.72;98154.38;5127022;28;20093;-71
2023/03/26 10:47:54;;;;;;;4.03;1.75;;;;;;;16.25;33.50;98142.91;5120593;28;20047;-71
2023/03/26 10:50:30;;;;;;;3.35;1.50;;;;;;;16.22;34.83;98142.34;5086894;28;20047;-71
2023/03/26 10:53:03;;;;;;;3.97;1.40;;;;;;;16.26;35.86;98138.41;5126762;28;20131;-71
2023/03/26 10:55:36;;;;;;;3.13;1.30;;;;;;;16.29;33.97;98138.94;5127521;28;20112;-71
2023/03/26 10:58:11;;;;;;;2.25;1.25;;;;;;;16.21;35.00;98129.97;5126504;28;20118;-71
2023/03/26 11:00:44;;;;;;;3.88;1.70;;;;;;;15.34;34.68;98004.84;5127392;28;20073;-71
2023/03/26 11:03:53;;;;;;;2.47;1.27;;;;;;;16.08;33.83;98129.50;5126850;28;20175;-71
2023/03/26 11:06:41;;;;;;;4.47;1.80;;;;;;;16.03;33.59;98120.09;5120232;28;20055;-71
2023/03/26 11:09:21;;;;;;;3.40;2.00;;;;;;;15.88;33.97;98112.72;5126220;28;20063;-70
2023/03/26 11:11:55;;;;;;;3.90;1.67;;;;;;;15.76;34.60;98103.22;5109291;28;20042;-71
2023/03/26 11:14:29;;;;;;;3.38;1.67;;;;;;;15.73;35.50;98099.00;5126957;28;20311;-70
2023/03/26 11:17:04;;;;;;;4.00;1.95;;;;;;;15.47;34.46;98074.75;5126961;28;20195;-71
2023/03/26 11:19:33;;;;;;;;;;;;;;;15.67;33.43;98096.94;5127298;28;20039;-71
2023/03/26 11:22:09;;;;;;;4.47;1.50;;;;;;;15.73;34.72;98085.66;5125681;28;19926;-71
2023/03/26 11:25:07;;;;;;;3.83;1.60;;;;;;;14.93;33.51;97916.25;5126650;28;20035;-71
2023/03/26 11:27:48;;;;;;;2.80;1.70;;;;;;;15.91;33.78;98069.66;5122065;28;20069;-72
2023/03/26 11:30:28;;;;;;;4.22;1.85;;;;;;;15.92;33.53;98016.09;5126587;28;20274;-71
2023/03/26 11:32:58;;;;;;;3.90;1.88;;;;;;;16.22;34.72;98046.13;5126960;28;20035;-71
2023/03/26 11:35:29;;;;;;;3.50;1.88;;;;;;;16.30;33.98;98046.22;5126229;28;20044;-71
2023/03/26 11:38:01;;;;;;;2.65;1.40;;;;;;;16.26;33.94;98043.00;5127020;28;20043;-71
2023/03/26 11:40:33;;;;;;;3.08;1.40;;;;;;;16.32;32.67;98053.09;5125963;28;20055;-71
2023/03/26 11:43:05;;;;;;;2.80;1.55;;;;;;;16.39;33.63;98033.75;5125867;28;20110;-71
2023/03/26 11:45:38;;;;;;;2.90;1.40;;;;;;;16.45;32.53;98042.00;5126238;28;20250;-73
2023/03/26 11:48:10;;;;;;;3.38;1.63;;;;;;;16.46;33.19;98035.66;5126155;28;20052;-73
2023/03/26 11:50:43;;;;;;;4.45;1.50;;;;;;;15.87;33.39;97940.06;5125578;28;20307;-72
2023/03/26 11:53:13;;;;;;;2.28;1.30;;;;;;;16.41;33.94;98005.88;5091835;28;20031;-73
2023/03/26 11:55:47;;;;;;;3.95;1.55;;;;;;;16.51;32.61;98011.13;5126266;28;20038;-73
2023/03/26 11:58:26;;;;;;;4.88;2.78;;;;;;;15.08;31.62;97808.06;5125463;28;20053;-72
2023/03/26 12:00:55;;;;;;;4.35;2.65;;;;;;;16.23;33.35;98013.06;5108619;28;20051;-73
2023/03/26 12:03:22;;;;;;;3.70;1.65;;;;;;;16.23;33.65;97997.03;5125445;28;20035;-73
2023/03/26 12:05:50;;;;;;;2.63;1.52;;;;;;;16.23;33.54;97997.03;5126405;28;20046;-73
2023/03/26 12:08:21;;;;;;;3.05;2.15;;;;;;;16.16;33.91;97999.47;5125609;28;20222;-73